createdAt,value
2018-02-04T00:01:02.209Z,2.10
2018-02-04T00:03:33.423Z,2.10
2018-02-04T00:06:05.293Z,2.10
2018-02-04T00:08:38.308Z,2.00
2018-02-04T00:11:09.728Z,2.00
2018-02-04T00:13:42.420Z,2.00
2018-02-04T00:16:14.148Z,2.00
2018-02-04T00:18:45.309Z,2.00
2018-02-04T00:21:16.698Z,2.00
2018-02-04T00:23:47.847Z,2.00
2018-02-04T00:26:18.752Z,2.00
2018-02-04T00:28:51.122Z,2.00
2018-02-04T00:31:22.242Z,2.10
2018-02-04T00:33:54.229Z,2.10
2018-02-04T00:36:26.237Z,2.10
2018-02-04T00:38:58.353Z,2.00
2018-02-04T00:41:29.443Z,2.10
2018-02-04T00:44:00.500Z,2.10
2018-02-04T00:46:32.521Z,2.20
2018-02-04T00:49:03.849Z,2.20
2018-02-04T00:51:34.758Z,2.30
2018-02-04T00:54:05.210Z,2.30
2018-02-04T00:56:36.745Z,2.30
2018-02-04T00:59:08.244Z,2.30
2018-02-04T01:01:40.559Z,2.30
2018-02-04T01:04:11.902Z,2.30
2018-02-04T01:06:43.259Z,2.30
2018-02-04T01:09:14.951Z,2.30
2018-02-04T01:11:46.433Z,2.20
2018-02-04T01:14:17.940Z,2.20
2018-02-04T01:16:46.050Z,2.20
2018-02-04T01:19:14.067Z,2.20
2018-02-04T01:21:41.940Z,2.30
2018-02-04T01:24:09.960Z,2.20
2018-02-04T01:26:38.730Z,2.20
2018-02-04T01:29:06.677Z,2.20
2018-02-04T01:31:34.564Z,2.20
2018-02-04T01:34:02.504Z,2.20
2018-02-04T01:36:30.440Z,2.20
2018-02-04T01:38:59.135Z,2.30
2018-02-04T01:41:27.031Z,2.30
2018-02-04T01:43:54.964Z,2.30
2018-02-04T01:46:22.861Z,2.20
2018-02-04T01:48:50.789Z,2.20
2018-02-04T01:51:19.441Z,2.30
2018-02-04T01:53:47.394Z,2.30
2018-02-04T01:56:15.369Z,2.30
2018-02-04T01:58:43.302Z,2.30
2018-02-04T02:01:11.652Z,2.30
2018-02-04T02:03:39.582Z,2.30
2018-02-04T02:06:07.467Z,2.40
2018-02-04T02:08:35.441Z,2.40
2018-02-04T02:11:03.329Z,2.40
2018-02-04T02:13:31.262Z,2.40
2018-02-04T02:15:59.156Z,2.40
2018-02-04T02:18:27.110Z,2.40
2018-02-04T02:20:55.001Z,2.50
2018-02-04T02:23:22.929Z,2.40
2018-02-04T02:25:50.812Z,2.30
2018-02-04T02:28:18.785Z,2.30
2018-02-04T02:30:46.658Z,2.30
2018-02-04T02:33:14.566Z,2.30
2018-02-04T02:35:43.302Z,2.40
2018-02-04T02:38:11.307Z,2.40
2018-02-04T02:40:39.280Z,2.40
2018-02-04T02:43:07.183Z,2.50
2018-02-04T02:45:35.167Z,2.50
2018-02-04T02:48:03.346Z,2.50
2018-02-04T02:50:31.304Z,2.40
2018-02-04T02:52:59.250Z,2.50
2018-02-04T02:55:27.185Z,2.50
2018-02-04T02:57:55.087Z,2.50
2018-02-04T03:00:23.039Z,2.50
2018-02-04T03:02:50.928Z,2.40
2018-02-04T03:05:19.633Z,2.50
2018-02-04T03:07:47.547Z,2.50
2018-02-04T03:10:15.491Z,2.50
2018-02-04T03:12:43.375Z,2.50
2018-02-04T03:15:11.454Z,2.50
2018-02-04T03:17:43.006Z,2.60
2018-02-04T03:20:10.954Z,2.50
2018-02-04T03:22:38.849Z,2.50
2018-02-04T03:25:06.859Z,2.40
2018-02-04T03:27:35.518Z,2.30
2018-02-04T03:30:03.484Z,2.30
2018-02-04T03:32:31.395Z,2.40
2018-02-04T03:34:59.364Z,2.30
2018-02-04T03:37:27.237Z,2.20
2018-02-04T03:39:55.211Z,2.20
2018-02-04T03:42:23.096Z,2.10
2018-02-04T03:44:51.036Z,2.10
2018-02-04T03:47:24.652Z,2.00
2018-02-04T03:49:52.594Z,2.00
2018-02-04T03:52:20.493Z,2.00
2018-02-04T03:54:48.434Z,1.90
2018-02-04T03:57:16.326Z,2.00
2018-02-04T03:59:44.268Z,2.00
2018-02-04T04:02:12.931Z,1.90
2018-02-04T04:04:40.887Z,1.80
2018-02-04T04:07:08.801Z,1.80
2018-02-04T04:09:36.750Z,1.70
2018-02-04T04:12:04.658Z,1.60
2018-02-04T04:14:32.625Z,1.50
2018-02-04T04:17:00.678Z,1.30
2018-02-04T04:19:29.412Z,1.10
2018-02-04T04:21:57.362Z,1.10
2018-02-04T04:24:25.325Z,1.10
2018-02-04T04:26:53.214Z,0.90
2018-02-04T04:29:21.188Z,0.90
2018-02-04T04:31:49.153Z,0.90
2018-02-04T04:34:17.106Z,0.70
2018-02-04T04:36:45.034Z,0.70
2018-02-04T04:39:12.987Z,0.70
2018-02-04T04:41:40.910Z,0.70
2018-02-04T04:44:09.143Z,0.70
2018-02-04T04:46:37.251Z,0.60
2018-02-04T04:49:05.996Z,0.60
2018-02-04T04:51:33.893Z,0.60
2018-02-04T04:54:07.911Z,0.60
2018-02-04T04:56:36.687Z,0.70
2018-02-04T04:59:04.658Z,0.60
2018-02-04T05:01:32.566Z,0.60
2018-02-04T05:04:00.519Z,0.50
2018-02-04T05:06:29.185Z,0.60
2018-02-04T05:08:57.166Z,0.60
2018-02-04T05:11:25.062Z,0.50
2018-02-04T05:13:53.013Z,0.50
2018-02-04T05:16:21.211Z,0.60
2018-02-04T05:18:49.142Z,0.50
2018-02-04T05:21:17.094Z,0.50
2018-02-04T05:23:45.005Z,0.50
2018-02-04T05:26:13.020Z,0.50
2018-02-04T05:28:40.916Z,0.50
2018-02-04T05:31:12.436Z,0.50
2018-02-04T05:33:44.170Z,0.50
2018-02-04T05:36:16.835Z,0.50
2018-02-04T05:38:48.433Z,0.50
2018-02-04T05:41:18.635Z,0.50
2018-02-04T05:43:50.059Z,0.40
2018-02-04T05:46:21.905Z,0.50
2018-02-04T05:48:53.205Z,0.40
2018-02-04T05:51:24.207Z,0.30
2018-02-04T05:56:29.808Z,0.30
2018-02-04T05:58:57.699Z,0.30
2018-02-04T06:01:25.653Z,0.30
2018-02-04T06:03:53.586Z,0.30
2018-02-04T06:06:22.335Z,0.40
2018-02-04T06:08:53.410Z,0.40
2018-02-04T06:11:25.253Z,0.40
2018-02-04T06:13:57.116Z,0.30
2018-02-04T06:16:29.254Z,0.20
2018-02-04T06:19:00.902Z,0.20
2018-02-04T06:21:33.048Z,0.10
2018-02-04T06:24:05.430Z,0.10
2018-02-04T06:26:37.721Z,0.00
2018-02-04T06:29:05.836Z,0.00
2018-02-04T06:31:36.561Z,0.00
2018-02-04T06:34:08.658Z,-0.10
2018-02-04T06:57:59.936Z,-0.10
2018-02-04T07:00:27.967Z,-0.20
2018-02-04T07:02:55.980Z,-0.10
2018-02-04T07:08:41.547Z,-0.20
2018-02-04T07:11:29.584Z,-0.20
2018-02-04T07:13:59.260Z,-0.30
2018-02-04T07:16:30.596Z,-0.30
2018-02-04T07:19:03.760Z,-0.40
2018-02-04T07:21:34.466Z,-0.30
2018-02-04T07:24:06.446Z,-0.30
2018-02-04T07:26:36.068Z,-0.20
2018-02-04T07:29:06.763Z,-0.20
2018-02-04T07:31:38.971Z,-0.20
2018-02-04T07:34:09.532Z,-0.30
2018-02-04T07:36:40.209Z,-0.30
2018-02-04T07:39:10.967Z,-0.30
2018-02-04T07:41:43.493Z,-0.40
2018-02-04T07:44:16.762Z,-0.40
2018-02-04T07:46:48.311Z,-0.30
2018-02-04T07:49:20.416Z,-0.40
2018-02-04T07:51:51.455Z,-0.40
2018-02-04T07:54:21.853Z,-0.40
2018-02-04T07:56:50.865Z,-0.50
2018-02-04T07:59:19.657Z,-0.40
2018-02-04T08:01:48.298Z,-0.30
2018-02-04T08:04:16.867Z,-0.30
2018-02-04T08:06:45.652Z,-0.40
2018-02-04T08:09:14.425Z,-0.30
2018-02-04T08:11:42.998Z,-0.30
2018-02-04T08:14:11.680Z,-0.40
2018-02-04T08:16:39.673Z,-0.40
2018-02-04T08:19:07.596Z,-0.30
2018-02-04T08:21:35.584Z,-0.40
2018-02-04T08:24:03.511Z,-0.30
2018-02-04T08:26:31.501Z,-0.20
2018-02-04T08:28:59.491Z,-0.30
2018-02-04T08:31:27.477Z,-0.30
2018-02-04T08:33:56.626Z,-0.30
2018-02-04T08:36:26.855Z,-0.30
2018-02-04T08:38:55.395Z,-0.30
2018-02-04T08:41:23.640Z,-0.20
2018-02-04T08:43:55.085Z,-0.20
2018-02-04T08:46:24.099Z,-0.10
2018-02-04T08:48:51.997Z,-0.10
2018-02-04T08:51:20.084Z,-0.20
2018-02-04T08:53:51.381Z,-0.20
2018-02-04T08:56:19.357Z,-0.30
2018-02-04T08:58:47.310Z,-0.20
2018-02-04T09:01:15.292Z,-0.10
2018-02-04T09:03:43.292Z,-0.20
2018-02-04T09:06:12.097Z,-0.20
2018-02-04T09:08:40.062Z,-0.20
2018-02-04T09:11:08.089Z,-0.20
2018-02-04T09:13:36.024Z,-0.20
2018-02-04T09:16:04.050Z,-0.20
2018-02-04T09:18:31.942Z,-0.20
2018-02-04T09:20:59.879Z,-0.30
2018-02-04T09:23:27.862Z,-0.30
2018-02-04T09:25:56.621Z,-0.20
2018-02-04T09:28:24.530Z,-0.20
2018-02-04T09:30:52.491Z,-0.20
2018-02-04T09:33:20.390Z,-0.20
2018-02-04T09:35:48.285Z,-0.20
2018-02-04T09:38:16.239Z,-0.20
2018-02-04T09:40:44.184Z,-0.30
2018-02-04T09:43:12.099Z,-0.20
2018-02-04T09:45:40.042Z,-0.20
2018-02-04T09:48:07.945Z,-0.30
2018-02-04T09:50:35.893Z,-0.40
2018-02-04T09:53:04.985Z,-0.20
2018-02-04T09:55:33.035Z,-0.10
2018-02-04T09:58:00.950Z,-0.10
2018-02-04T10:00:28.884Z,-0.10
2018-02-04T10:02:56.792Z,0.00
2018-02-04T10:05:24.746Z,0.10
2018-02-04T10:07:52.746Z,0.20
2018-02-04T10:10:20.728Z,0.30
2018-02-04T10:12:49.541Z,0.10
2018-02-04T10:15:18.113Z,0.10
2018-02-04T10:17:46.709Z,0.10
2018-02-04T10:20:14.657Z,0.20
2018-02-04T10:22:44.680Z,0.10
2018-02-04T10:25:12.656Z,0.20
2018-02-04T10:27:41.354Z,0.20
2018-02-04T10:30:09.331Z,0.10
2018-02-04T10:32:37.232Z,0.30
2018-02-04T10:35:05.155Z,0.50
2018-02-04T10:37:33.976Z,0.50
2018-02-04T10:40:05.549Z,0.50
2018-02-04T10:42:33.664Z,0.60
2018-02-04T10:45:04.791Z,0.40
2018-02-04T10:47:36.210Z,0.40
2018-02-04T10:50:04.267Z,0.40
2018-02-04T10:52:32.303Z,0.30
2018-02-04T10:55:00.975Z,0.50
2018-02-04T10:57:28.939Z,0.40
2018-02-04T10:59:56.837Z,0.50
2018-02-04T11:02:25.590Z,0.80
2018-02-04T11:04:53.491Z,0.80
2018-02-04T11:07:21.446Z,0.80
2018-02-04T11:09:49.375Z,0.80
2018-02-04T11:12:18.460Z,0.70
2018-02-04T11:14:46.434Z,0.80
2018-02-04T11:17:14.395Z,0.80
2018-02-04T11:19:42.285Z,1.40
2018-02-04T11:22:10.319Z,2.20
2018-02-04T11:24:38.198Z,2.30
2018-02-04T11:27:06.149Z,2.10
2018-02-04T11:29:34.820Z,1.80
2018-02-04T11:32:02.821Z,1.80
2018-02-04T11:34:30.714Z,1.80
2018-02-04T11:36:58.636Z,1.90
2018-02-04T11:39:26.628Z,2.10
2018-02-04T11:41:54.712Z,2.10
2018-02-04T11:44:22.655Z,2.20
2018-02-04T11:46:50.605Z,2.80
2018-02-04T11:49:18.549Z,3.10
2018-02-04T11:51:46.532Z,4.00
2018-02-04T11:54:14.592Z,4.90
2018-02-04T11:56:42.613Z,5.30
2018-02-04T11:59:10.549Z,6.20
2018-02-04T12:01:38.542Z,6.70
2018-02-04T12:04:07.195Z,7.90
2018-02-04T12:06:35.219Z,7.90
2018-02-04T12:09:03.214Z,7.10
2018-02-04T12:11:31.190Z,6.40
2018-02-04T12:13:59.221Z,6.20
2018-02-04T12:16:27.144Z,4.80
2018-02-04T12:18:55.033Z,4.70
2018-02-04T12:21:23.000Z,4.90
2018-02-04T12:23:50.899Z,4.70
2018-02-04T12:26:18.863Z,3.50
2018-02-04T12:28:46.737Z,2.80
2018-02-04T12:31:14.654Z,2.90
2018-02-04T12:33:42.741Z,2.90
2018-02-04T12:36:10.682Z,2.90
2018-02-04T12:38:38.556Z,2.40
2018-02-04T12:41:09.243Z,2.40
2018-02-04T12:43:37.180Z,2.50
2018-02-04T12:46:05.151Z,2.40
2018-02-04T12:48:33.197Z,2.50
2018-02-04T12:51:01.195Z,2.60
2018-02-04T12:53:31.807Z,2.60
2018-02-04T12:55:59.922Z,2.70
2018-02-04T12:58:28.676Z,2.20
2018-02-04T13:00:56.645Z,2.10
2018-02-04T13:03:24.584Z,1.90
2018-02-04T13:05:52.552Z,2.00
2018-02-04T13:08:20.478Z,1.80
2018-02-04T13:10:48.714Z,1.70
2018-02-04T13:13:16.632Z,1.80
2018-02-04T13:15:45.536Z,1.80
2018-02-04T13:18:13.557Z,1.70
2018-02-04T13:20:41.594Z,1.50
2018-02-04T13:23:10.454Z,1.60
2018-02-04T13:25:38.543Z,1.50
2018-02-04T13:28:07.270Z,2.00
2018-02-04T13:30:35.175Z,2.00
2018-02-04T13:33:03.150Z,2.00
2018-02-04T13:35:31.058Z,2.20
2018-02-04T13:37:59.039Z,2.00
2018-02-04T13:40:26.971Z,2.00
2018-02-04T13:42:54.974Z,1.80
2018-02-04T13:45:22.885Z,2.00
2018-02-04T13:47:50.922Z,2.00
2018-02-04T13:50:18.880Z,1.90
2018-02-04T13:52:46.942Z,1.90
2018-02-04T13:55:17.646Z,1.60
2018-02-04T13:57:49.531Z,1.50
2018-02-04T14:00:22.489Z,1.30
2018-02-04T14:02:54.256Z,1.30
2018-02-04T14:05:26.717Z,1.20
2018-02-04T14:07:57.012Z,1.20
2018-02-04T14:10:28.398Z,1.30
2018-02-04T14:13:00.344Z,1.50
2018-02-04T14:15:30.486Z,1.40
2018-02-04T14:18:02.763Z,1.50
2018-02-04T14:20:35.383Z,1.40
2018-02-04T14:23:08.659Z,1.40
2018-02-04T14:25:40.145Z,1.20
2018-02-04T14:28:11.258Z,0.90
2018-02-04T14:30:41.522Z,1.10
2018-02-04T14:33:09.526Z,1.20
2018-02-04T14:35:43.333Z,1.10
2018-02-04T14:38:13.947Z,1.10
2018-02-04T14:40:43.786Z,1.00
2018-02-04T14:43:15.262Z,0.90
2018-02-04T14:45:47.142Z,0.80
2018-02-04T14:48:17.290Z,0.60
2018-02-04T14:50:48.952Z,0.70
2018-02-04T14:53:22.260Z,0.60
2018-02-04T14:55:54.345Z,0.50
2018-02-04T14:58:25.320Z,0.50
2018-02-04T15:00:56.468Z,0.50
2018-02-04T15:03:28.477Z,0.40
2018-02-04T15:06:00.534Z,0.50
2018-02-04T15:08:32.520Z,0.40
2018-02-04T15:11:03.498Z,0.50
2018-02-04T15:13:31.472Z,0.60
2018-02-04T15:15:59.420Z,0.50
2018-02-04T15:18:27.834Z,0.40
2018-02-04T15:20:55.744Z,0.30
2018-02-04T15:23:23.696Z,0.30
2018-02-04T15:25:51.595Z,0.40
2018-02-04T15:28:19.535Z,0.30
2018-02-04T15:30:47.481Z,0.20
2018-02-04T15:33:16.195Z,0.10
2018-02-04T15:35:44.124Z,0.10
2018-02-04T15:38:12.151Z,0.10
2018-02-04T15:40:40.101Z,0.00
2018-02-04T15:43:08.051Z,0.10
2018-02-04T15:45:35.954Z,0.10
2018-02-04T15:48:03.933Z,0.10
2018-02-04T15:50:31.909Z,-0.10
2018-02-04T15:52:59.928Z,-0.10
2018-02-04T15:55:27.838Z,-0.20
2018-02-04T15:57:55.821Z,-0.20
2018-02-04T16:00:23.735Z,-0.30
2018-02-04T16:02:51.717Z,-0.20
2018-02-04T16:05:20.437Z,-0.20
2018-02-04T16:07:48.456Z,-0.30
2018-02-04T16:10:16.362Z,-0.20
2018-02-04T16:12:45.205Z,-0.20
2018-02-04T16:15:13.116Z,-0.20
2018-02-04T16:17:41.820Z,-0.30
2018-02-04T16:20:09.709Z,-0.30
2018-02-04T16:22:38.810Z,-0.20
2018-02-04T16:25:06.739Z,-0.30
2018-02-04T16:27:35.449Z,-0.40
2018-02-04T16:30:04.208Z,-0.40
2018-02-04T16:32:32.990Z,-0.50
2018-02-04T16:35:01.747Z,-0.40
2018-02-04T16:37:30.511Z,-0.40
2018-02-04T16:40:01.351Z,-0.40
2018-02-04T16:42:30.698Z,-0.40
2018-02-04T16:44:58.572Z,-0.40
2018-02-04T16:47:26.554Z,-0.40
2018-02-04T16:49:55.220Z,-0.30
2018-02-04T16:52:23.356Z,-0.30
2018-02-04T16:54:51.296Z,-0.30
2018-02-04T16:57:20.124Z,-0.40
2018-02-04T16:59:48.213Z,-0.40
2018-02-04T17:02:16.172Z,-0.30
2018-02-04T17:04:44.092Z,-0.30
2018-02-04T17:07:12.031Z,-0.30
2018-02-04T17:09:39.904Z,-0.30
2018-02-04T17:12:07.893Z,-0.30
2018-02-04T17:14:36.684Z,-0.30
2018-02-04T17:17:05.847Z,-0.30
2018-02-04T17:19:34.023Z,-0.30
2018-02-04T17:22:02.166Z,-0.30
2018-02-04T17:24:30.052Z,-0.30
2018-02-04T17:26:58.011Z,-0.30
2018-02-04T17:29:25.949Z,-0.40
2018-02-04T17:31:54.070Z,-0.30
2018-02-04T17:34:21.960Z,-0.30
2018-02-04T17:36:50.023Z,-0.30
2018-02-04T17:39:18.029Z,-0.40
2018-02-04T17:41:46.071Z,-0.30
2018-02-04T17:44:15.679Z,-0.50
2018-02-04T17:46:43.728Z,-0.40
2018-02-04T17:49:12.547Z,-0.50
2018-02-04T17:51:42.715Z,-0.60
2018-02-04T17:54:10.718Z,-0.70
2018-02-04T17:56:38.683Z,-0.70
2018-02-04T17:59:06.704Z,-0.70
2018-02-04T18:01:34.739Z,-0.70
2018-02-04T18:04:02.760Z,-0.70
2018-02-04T18:06:30.675Z,-0.70
2018-02-04T18:08:58.788Z,-0.60
2018-02-04T18:11:27.461Z,-0.60
2018-02-04T18:13:55.624Z,-0.60
2018-02-04T18:16:23.583Z,-0.60
2018-02-04T18:18:51.550Z,-0.60
2018-02-04T18:21:19.508Z,-0.60
2018-02-04T18:23:47.560Z,-0.60
2018-02-04T18:26:15.478Z,-0.60
2018-02-04T18:28:44.309Z,-0.50
2018-02-04T18:31:12.288Z,-0.50
2018-02-04T18:33:40.242Z,-0.50
2018-02-04T18:36:08.141Z,-0.50
2018-02-04T18:38:36.088Z,-0.50
2018-02-04T18:41:03.971Z,-0.40
2018-02-04T18:43:35.567Z,-0.50
2018-02-04T18:46:03.536Z,-0.40
2018-02-04T18:48:31.464Z,-0.40
2018-02-04T18:50:59.384Z,-0.40
2018-02-04T18:53:27.333Z,-0.40
2018-02-04T18:55:55.215Z,-0.30
2018-02-04T18:58:23.152Z,-0.30
2018-02-04T19:00:51.057Z,-0.30
2018-02-04T19:03:18.999Z,-0.30
2018-02-04T19:05:46.959Z,-0.50
2018-02-04T19:08:14.957Z,-0.40
2018-02-04T19:10:42.899Z,-0.40
2018-02-04T19:13:18.184Z,-0.50
2018-02-04T19:15:46.089Z,-0.40
2018-02-04T19:18:14.037Z,-0.50
2018-02-04T19:20:42.738Z,-0.50
2018-02-04T19:23:11.474Z,-0.50
2018-02-04T19:25:39.469Z,-0.50
2018-02-04T19:28:07.406Z,-0.50
2018-02-04T19:30:35.291Z,-0.50
2018-02-04T19:33:03.270Z,-0.50
2018-02-04T19:35:31.162Z,-0.50
2018-02-04T19:37:59.935Z,-0.50
2018-02-04T19:40:27.897Z,-0.50
2018-02-04T19:42:56.116Z,-0.50
2018-02-04T19:45:24.011Z,-0.50
2018-02-04T19:47:52.048Z,-0.50
2018-02-04T19:50:20.499Z,-0.50
2018-02-04T19:52:49.364Z,-0.40
2018-02-04T19:55:17.431Z,-0.50
2018-02-04T19:57:46.689Z,-0.40
2018-02-04T20:00:14.706Z,-0.30
2018-02-04T20:02:42.708Z,-0.30
2018-02-04T20:05:10.603Z,-0.30
2018-02-04T20:07:39.323Z,-0.40
2018-02-04T20:10:07.256Z,-0.40
2018-02-04T20:12:42.113Z,-0.40
2018-02-04T20:15:10.091Z,-0.40
2018-02-04T20:17:38.802Z,-0.40
2018-02-04T20:20:06.724Z,-0.40
2018-02-04T20:22:34.695Z,-0.40
2018-02-04T20:25:02.580Z,-0.40
2018-02-04T20:27:30.550Z,-0.40
2018-02-04T20:29:58.653Z,-0.40
2018-02-04T20:32:38.402Z,-0.50
2018-02-04T20:35:06.343Z,-0.50
2018-02-04T20:37:34.285Z,-0.40
2018-02-04T20:40:02.305Z,-0.60
2018-02-04T20:42:30.217Z,-0.50
2018-02-04T20:44:58.205Z,-0.60
2018-02-04T20:47:26.144Z,-0.60
2018-02-04T20:49:54.162Z,-0.50
2018-02-04T20:52:22.082Z,-0.50
2018-02-04T20:54:50.448Z,-0.60
2018-02-04T20:57:18.347Z,-0.60
2018-02-04T20:59:47.072Z,-0.60
2018-02-04T21:02:15.732Z,-0.60
2018-02-04T21:04:43.916Z,-0.50
2018-02-04T21:07:12.292Z,-0.50
2018-02-04T21:09:40.242Z,-0.50
2018-02-04T21:12:08.204Z,-0.50
2018-02-04T21:14:36.192Z,-0.40
2018-02-04T21:17:04.871Z,-0.40
2018-02-04T21:19:33.610Z,-0.40
2018-02-04T21:22:01.683Z,-0.40
2018-02-04T21:24:29.651Z,-0.50
2018-02-04T21:26:57.555Z,-0.50
2018-02-04T21:29:25.507Z,-0.50
2018-02-04T21:31:54.532Z,-0.50
2018-02-04T21:34:23.252Z,-0.50
2018-02-04T21:36:51.193Z,-0.50
2018-02-04T21:39:19.244Z,-0.60
2018-02-04T21:41:47.161Z,-0.60
2018-02-04T21:44:15.130Z,-0.60
2018-02-04T21:46:43.022Z,-0.60
2018-02-04T21:49:10.947Z,-0.50
2018-02-04T21:51:38.838Z,-0.50
2018-02-04T21:54:06.776Z,-0.40
2018-02-04T21:56:34.663Z,-0.50
2018-02-04T21:59:02.617Z,-0.50
2018-02-04T22:01:30.533Z,-0.50
2018-02-04T22:03:58.476Z,-0.50
2018-02-04T22:06:26.379Z,-0.50
2018-02-04T22:08:54.323Z,-0.50
2018-02-04T22:11:22.214Z,-0.50
2018-02-04T22:13:50.151Z,-0.50
2018-02-04T22:16:18.062Z,-0.50
2018-02-04T22:18:46.015Z,-0.50
2018-02-04T22:21:13.918Z,-0.60
2018-02-04T22:23:42.019Z,-0.60
2018-02-04T22:26:09.947Z,-0.60
2018-02-04T22:28:37.891Z,-0.50
2018-02-04T22:31:05.800Z,-0.60
2018-02-04T22:33:33.890Z,-0.60
2018-02-04T22:36:02.582Z,-0.70
2018-02-04T22:38:31.312Z,-0.90
2018-02-04T22:40:59.327Z,-0.90
2018-02-04T22:43:27.305Z,-1.00
2018-02-04T22:45:55.232Z,-1.10
2018-02-04T22:48:23.202Z,-1.20
2018-02-04T22:50:51.143Z,-1.30
2018-02-04T22:53:19.225Z,-1.40
2018-02-04T22:55:47.154Z,-1.40
2018-02-04T22:58:15.135Z,-1.50
2018-02-04T23:00:43.813Z,-1.50
2018-02-04T23:03:11.723Z,-1.50
2018-02-04T23:05:39.691Z,-1.50
2018-02-04T23:08:08.361Z,-1.30
2018-02-04T23:10:36.325Z,-1.30
2018-02-04T23:13:04.998Z,-1.10
2018-02-04T23:15:32.945Z,-1.10
2018-02-04T23:18:00.817Z,-1.00
2018-02-04T23:20:28.784Z,-1.00
2018-02-04T23:22:56.829Z,-0.90
2018-02-04T23:25:25.537Z,-0.80
2018-02-04T23:27:53.401Z,-0.80
2018-02-04T23:30:21.315Z,-0.80
2018-02-04T23:32:49.939Z,-0.80
2018-02-04T23:35:17.865Z,-0.80
2018-02-04T23:37:46.538Z,-0.70
2018-02-04T23:40:14.401Z,-0.60
2018-02-04T23:42:42.313Z,-0.60
2018-02-04T23:45:10.995Z,-0.50
2018-02-04T23:47:38.864Z,-0.60
2018-02-04T23:50:06.773Z,-0.50
2018-02-04T23:52:34.646Z,-0.50
2018-02-04T23:55:02.552Z,-0.40
2018-02-04T23:57:30.424Z,-0.50
2018-02-04T23:59:58.350Z,-0.50
